Time;durP1;ratioP1;P1;durP2;ratioP2;P2;SDS_P1;SDS_P2;PMS_P1;PMS_P2;Temp;Humidity;BMP_temperature;BMP_pressure;BME280_temperature;BME280_humidity;BME280_pressure;Samples;Min_cycle;Max_cycle;Signal;HPM_P1;HPM_P2
2022/11/10 00:00:21;;;;;;;104.00;53.80;;;;;;;1.42;100.00;98225.28;1713928;82;20938;-81
2022/11/10 00:02:50;;;;;;;106.75;53.45;;;;;;;1.37;100.00;98231.28;1714168;82;21451;-78
2022/11/10 00:05:17;;;;;;;103.65;50.43;;;;;;;1.36;100.00;98243.48;1715529;83;21004;-78
2022/11/10 00:07:44;;;;;;;101.45;58.00;;;;;;;1.32;100.00;98240.45;1719315;83;21015;-81
2022/11/10 00:10:11;;;;;;;101.67;52.15;;;;;;;1.27;100.00;98230.91;1719304;83;20992;-80
2022/11/10 00:12:38;;;;;;;94.92;49.18;;;;;;;1.27;100.00;98238.11;1719436;83;21560;-78
2022/11/10 00:17:43;;;;;;;;;;;;;;;1.23;100.00;98238.25;1696156;83;20949;-78
2022/11/10 00:20:10;;;;;;;90.90;44.45;;;;;;;1.16;100.00;98238.28;1719338;83;20411;-81
2022/11/10 00:22:38;;;;;;;99.00;49.63;;;;;;;1.12;100.00;98248.58;1719196;83;21405;-78
2022/11/10 00:25:06;;;;;;;99.30;49.45;;;;;;;1.13;100.00;98250.73;1719275;83;21552;-78
2022/11/10 00:27:33;;;;;;;92.95;50.15;;;;;;;1.14;100.00;98245.69;1719253;83;21051;-81
2022/11/10 00:30:00;;;;;;;87.67;45.78;;;;;;;1.10;100.00;98248.47;1719001;83;21000;-78
2022/11/10 00:32:27;;;;;;;88.10;46.13;;;;;;;1.08;100.00;98248.69;1715082;83;21538;-78
2022/11/10 00:34:53;;;;;;;86.75;45.70;;;;;;;1.07;100.00;98246.23;1714200;83;21058;-81
2022/11/10 00:37:20;;;;;;;87.67;45.17;;;;;;;1.09;100.00;98248.98;1714177;83;20975;-82
2022/11/10 00:39:47;;;;;;;85.60;42.45;;;;;;;1.10;100.00;98253.80;1714179;83;21007;-81
2022/11/10 00:42:14;;;;;;;82.80;43.35;;;;;;;1.15;100.00;98257.19;1714208;82;21061;-81
2022/11/10 00:44:41;;;;;;;79.70;40.33;;;;;;;1.17;100.00;98257.27;1714182;83;20987;-81
2022/11/10 00:47:08;;;;;;;89.62;46.65;;;;;;;1.15;100.00;98264.67;1714184;83;21054;-79
2022/11/10 00:49:35;;;;;;;73.72;39.05;;;;;;;1.16;100.00;98266.30;1714178;83;20998;-81
2022/11/10 00:52:02;;;;;;;75.08;40.25;;;;;;;1.20;100.00;98264.86;1714137;83;21649;-78
2022/11/10 00:54:29;;;;;;;76.85;39.85;;;;;;;1.20;100.00;98271.54;1714078;83;20983;-82
2022/11/10 00:56:56;;;;;;;77.82;38.10;;;;;;;1.13;100.00;98266.23;1703714;83;20994;-78
2022/11/10 00:59:22;;;;;;;79.85;38.45;;;;;;;1.10;100.00;98269.30;1714006;83;21454;-81
2022/11/10 01:01:49;;;;;;;76.47;36.20;;;;;;;1.11;100.00;98261.63;1713983;83;21008;-78
2022/11/10 01:04:16;;;;;;;76.77;40.70;;;;;;;1.12;100.00;98263.26;1714159;83;21016;-78
2022/11/10 01:06:43;;;;;;;69.67;38.80;;;;;;;1.12;100.00;98265.92;1718455;83;21414;-78
2022/11/10 01:09:10;;;;;;;72.35;37.60;;;;;;;1.10;100.00;98265.81;1719256;83;20992;-79
2022/11/10 01:11:37;;;;;;;66.00;35.20;;;;;;;1.06;100.00;98265.44;1719227;83;20948;-81
2022/11/10 01:14:04;;;;;;;63.48;36.35;;;;;;;1.05;100.00;98257.65;1719156;83;20953;-79
2022/11/10 01:16:31;;;;;;;64.00;36.08;;;;;;;1.08;100.00;98263.87;1719202;83;21416;-80
2022/11/10 01:19:00;;;;;;;65.52;35.20;;;;;;;1.09;100.00;98256.17;1719222;83;21028;-81
2022/11/10 01:21:28;;;;;;;64.95;33.55;;;;;;;1.11;100.00;98255.44;1719086;83;21444;-81
2022/11/10 01:23:55;;;;;;;62.10;32.05;;;;;;;1.12;100.00;98256.58;1719283;83;21528;-79
2022/11/10 01:26:22;;;;;;;62.75;32.15;;;;;;;1.15;100.00;98266.52;1719245;83;21172;-82
2022/11/10 01:28:49;;;;;;;61.63;32.75;;;;;;;1.14;100.00;98267.05;1719123;83;21014;-81
2022/11/10 01:31:18;;;;;;;66.97;36.08;;;;;;;1.12;100.00;98265.11;1717493;83;20960;-82
2022/11/10 01:33:45;;;;;;;;;;;;;;;1.10;100.00;98269.81;1716607;83;20998;-78
2022/11/10 01:36:12;;;;;;;56.20;29.02;;;;;;;1.06;100.00;98269.95;1714109;83;20187;-78
2022/11/10 01:38:40;;;;;;;59.83;33.28;;;;;;;1.01;100.00;98272.43;1714110;83;20955;-78
2022/11/10 01:41:09;;;;;;;52.47;30.87;;;;;;;1.05;100.00;98276.33;1704146;83;20960;-78
2022/11/10 01:43:36;;;;;;;57.67;30.25;;;;;;;1.03;100.00;98278.40;1714132;82;21002;-78
2022/11/10 01:46:11;;;;;;;68.37;32.88;;;;;;;1.02;100.00;98276.22;1714182;83;20999;-78
2022/11/10 01:48:54;;;;;;;58.55;31.05;;;;;;;1.01;100.00;98279.92;1714091;83;20979;-78
2022/11/10 01:51:33;;;;;;;57.05;29.30;;;;;;;1.05;100.00;98276.33;1714017;83;21462;-82
2022/11/10 01:54:07;;;;;;;50.08;27.32;;;;;;;1.09;100.00;98280.20;1714327;83;21042;-81
2022/11/10 01:56:39;;;;;;;55.38;28.00;;;;;;;1.13;100.00;98281.42;1713957;83;20987;-82
2022/11/10 01:59:10;;;;;;;53.13;27.40;;;;;;;1.20;100.00;98289.38;1713952;82;21010;-79
2022/11/10 02:01:37;;;;;;;57.55;30.20;;;;;;;1.23;100.00;98296.98;1713951;83;21030;-79
2022/11/10 02:04:07;;;;;;;55.40;28.55;;;;;;;1.21;100.00;98298.53;1714083;83;21408;-81
2022/11/10 02:06:38;;;;;;;43.60;25.45;;;;;;;1.20;100.00;98293.37;1718237;81;21153;-82
2022/11/10 02:09:05;;;;;;;57.73;27.10;;;;;;;1.18;100.00;98290.11;1719129;83;21436;-78
2022/11/10 02:11:31;;;;;;;52.30;27.60;;;;;;;1.21;100.00;98295.05;1719067;83;21059;-78
2022/11/10 02:13:58;;;;;;;52.10;28.23;;;;;;;1.23;100.00;98301.80;1719025;83;20996;-82
2022/11/10 02:16:27;;;;;;;49.25;27.85;;;;;;;1.22;100.00;98300.17;1719189;83;21036;-79
2022/11/10 02:18:54;;;;;;;45.88;25.80;;;;;;;1.21;100.00;98301.20;1719526;83;21041;-81
2022/11/10 02:21:21;;;;;;;46.70;25.27;;;;;;;1.23;100.00;98313.81;1719019;83;20969;-84
2022/11/10 02:23:52;;;;;;;46.80;23.85;;;;;;;1.24;100.00;98314.11;1719321;83;21508;-84
2022/11/10 02:26:26;;;;;;;44.93;24.30;;;;;;;1.24;100.00;98314.11;1718682;83;20996;-84
2022/11/10 02:28:53;;;;;;;48.30;25.72;;;;;;;1.21;100.00;98314.55;1719127;83;21027;-84
2022/11/10 02:31:20;;;;;;;55.88;26.87;;;;;;;1.18;100.00;98320.30;1717312;83;22209;-84
2022/11/10 02:33:46;;;;;;;54.95;29.92;;;;;;;1.15;100.00;98327.92;1713987;83;20971;-81
2022/11/10 02:36:13;;;;;;;50.35;27.35;;;;;;;1.15;100.00;98325.25;1713941;83;21011;-81
2022/11/10 02:38:40;;;;;;;47.88;25.35;;;;;;;1.17;100.00;98322.66;1714033;83;20986;-84
2022/11/10 02:41:07;;;;;;;46.70;23.57;;;;;;;1.18;100.00;98320.30;1714059;83;21993;-84
2022/11/10 02:43:34;;;;;;;47.50;25.48;;;;;;;1.22;100.00;98326.05;1713981;83;21027;-84
2022/11/10 02:46:01;;;;;;;44.45;24.30;;;;;;;1.27;100.00;98320.36;1714092;83;21007;-82
2022/11/10 02:48:28;;;;;;;47.95;24.05;;;;;;;1.32;100.00;98325.89;1714061;83;21025;-84
2022/11/10 02:50:55;;;;;;;46.68;23.62;;;;;;;1.39;100.00;98321.34;1714096;83;20964;-82
2022/11/10 02:53:21;;;;;;;45.75;24.75;;;;;;;1.45;100.00;98322.31;1714091;83;21031;-81
2022/11/10 02:55:48;;;;;;;44.88;25.15;;;;;;;1.46;100.00;98325.83;1714207;83;21016;-82
2022/11/10 02:58:15;;;;;;;45.00;22.80;;;;;;;1.46;100.00;98331.99;1713824;83;20971;-81
2022/11/10 03:00:42;;;;;;;43.23;21.73;;;;;;;1.46;100.00;98332.51;1703783;83;21515;-84
2022/11/10 03:03:09;;;;;;;43.40;23.00;;;;;;;1.44;100.00;98334.03;1714002;83;20994;-81
2022/11/10 03:05:36;;;;;;;44.38;21.60;;;;;;;1.41;100.00;98331.28;1716258;83;21070;-81
2022/11/10 03:08:03;;;;;;;42.53;22.58;;;;;;;1.45;100.00;98338.86;1719218;83;21036;-84
2022/11/10 03:10:30;;;;;;;41.05;21.25;;;;;;;1.50;100.00;98338.53;1719223;83;20972;-81
2022/11/10 03:12:59;;;;;;;41.73;22.42;;;;;;;1.54;100.00;98338.42;1719102;83;21393;-84
2022/11/10 03:15:26;;;;;;;40.25;20.97;;;;;;;1.57;100.00;98337.17;1719424;83;20999;-81
2022/11/10 03:17:53;;;;;;;37.95;20.23;;;;;;;1.56;100.00;98339.53;1719250;83;20983;-82
2022/11/10 03:20:20;;;;;;;40.23;20.60;;;;;;;1.51;100.00;98338.83;1719159;83;21475;-81
2022/11/10 03:22:47;;;;;;;39.75;22.65;;;;;;;1.50;100.00;98341.72;1719345;83;20953;-84
2022/11/10 03:25:14;;;;;;;41.50;21.62;;;;;;;1.49;100.00;98342.23;1719325;83;20980;-84
2022/11/10 03:27:40;;;;;;;46.65;24.45;;;;;;;1.49;100.00;98351.59;1699742;83;21069;-82
2022/11/10 03:30:08;;;;;;;47.33;22.73;;;;;;;1.51;100.00;98362.87;1684112;84;20959;-81
2022/11/10 03:32:35;;;;;;;36.23;20.50;;;;;;;1.48;100.00;98365.16;1710420;83;21122;-82
2022/11/10 03:35:03;;;;;;;39.67;21.48;;;;;;;1.42;100.00;98364.14;1714013;83;20971;-82
2022/11/10 03:37:29;;;;;;;45.08;23.02;;;;;;;1.37;100.00;98368.80;1713956;83;21346;-81
2022/11/10 03:39:56;;;;;;;43.00;21.23;;;;;;;1.33;100.00;98364.09;1714182;83;20947;-78
2022/11/10 03:42:23;;;;;;;44.75;23.42;;;;;;;1.29;100.00;98368.23;1713770;83;21411;-82
2022/11/10 03:44:50;;;;;;;41.37;21.93;;;;;;;1.23;100.00;98361.87;1714335;83;20997;-78
2022/11/10 03:47:17;;;;;;;41.18;20.30;;;;;;;1.22;100.00;98360.23;1712608;82;20974;-78
2022/11/10 03:49:44;;;;;;;43.48;21.45;;;;;;;1.21;100.00;98361.27;1712632;83;21022;-81
2022/11/10 03:52:11;;;;;;;42.98;21.07;;;;;;;1.16;100.00;98361.59;1712365;82;21513;-78
2022/11/10 03:54:38;;;;;;;37.30;20.30;;;;;;;1.15;100.00;98365.29;1712703;83;20986;-78
2022/11/10 03:57:04;;;;;;;34.30;19.85;;;;;;;1.16;100.00;98371.75;1712322;82;20967;-78
2022/11/10 03:59:31;;;;;;;35.48;18.67;;;;;;;1.16;100.00;98372.27;1712636;83;20972;-78
2022/11/10 04:01:58;;;;;;;43.02;21.35;;;;;;;1.12;100.00;98374.55;1712345;83;21508;-79
2022/11/10 04:09:58;;;;;;;36.67;18.60;;;;;;;1.15;100.00;98385.31;1685608;85;21745;-82
2022/11/10 04:18:19;;;;;;;36.20;17.50;;;;;;;1.18;100.00;98391.55;1685307;83;21009;-81
2022/11/10 04:20:28;;;;;;;34.92;18.17;;;;;;;1.17;100.00;98391.25;1684053;85;20993;-81
2022/11/10 04:26:27;;;;;;;37.03;17.30;;;;;;;1.26;100.00;98388.66;1685555;85;21021;-81
2022/11/10 04:28:09;;;;;;;36.53;18.10;;;;;;;1.30;100.00;98396.56;1684075;83;28070;-81
2022/11/10 04:30:36;;;;;;;33.23;17.62;;;;;;;1.35;100.00;98396.73;1688563;82;21009;-79
2022/11/10 04:33:02;;;;;;;36.20;18.77;;;;;;;1.43;100.00;98393.82;1738783;81;21433;-79
2022/11/10 04:35:29;;;;;;;30.32;15.95;;;;;;;1.51;100.00;98400.27;1738930;82;21035;-81
2022/11/10 04:37:56;;;;;;;37.38;18.02;;;;;;;1.57;100.00;98394.59;1738751;81;20996;-78
2022/11/10 04:40:23;;;;;;;36.23;18.50;;;;;;;1.61;100.00;98399.80;1738905;82;21460;-81
2022/11/10 04:42:50;;;;;;;39.05;20.85;;;;;;;1.66;100.00;98402.67;1738665;81;21000;-82
2022/11/10 04:45:17;;;;;;;38.65;22.58;;;;;;;1.72;100.00;98405.83;1739038;82;21024;-78
2022/11/10 04:47:44;;;;;;;33.88;18.17;;;;;;;1.74;100.00;98399.75;1738806;81;21445;-81
2022/11/10 04:50:11;;;;;;;35.25;18.90;;;;;;;1.76;100.00;98401.69;1738860;82;20988;-81
2022/11/10 04:52:38;;;;;;;39.23;21.00;;;;;;;1.75;100.00;98397.38;1738866;81;20981;-82
2022/11/10 04:55:06;;;;;;;40.75;21.65;;;;;;;1.81;100.00;98399.72;1739095;82;21032;-82
2022/11/10 04:57:33;;;;;;;38.15;19.30;;;;;;;1.82;100.00;98394.16;1738980;81;20984;-78
2022/11/10 05:00:00;;;;;;;38.60;19.98;;;;;;;1.86;100.00;98398.02;1739107;82;21445;-78
2022/11/10 05:02:27;;;;;;;40.28;20.37;;;;;;;1.93;100.00;98402.00;1738621;81;21128;-79
2022/11/10 05:04:53;;;;;;;36.45;18.55;;;;;;;1.97;100.00;98397.88;1735862;82;21032;-79
2022/11/10 05:07:20;;;;;;;35.43;18.25;;;;;;;2.02;100.00;98407.91;1714002;83;20969;-79
2022/11/10 05:09:48;;;;;;;31.65;18.15;;;;;;;2.06;100.00;98407.28;1714063;83;21417;-78
2022/11/10 05:12:14;;;;;;;36.20;20.32;;;;;;;2.12;100.00;98409.59;1713936;83;21021;-79
2022/11/10 05:14:41;;;;;;;36.53;19.07;;;;;;;2.13;100.00;98415.23;1714160;83;21055;-79
2022/11/10 05:17:08;;;;;;;40.15;18.17;;;;;;;2.16;100.00;98414.30;1714034;83;21381;-82
2022/11/10 05:19:35;;;;;;;38.02;18.87;;;;;;;2.18;100.00;98418.09;1714135;83;20950;-81
2022/11/10 05:22:02;;;;;;;39.45;19.57;;;;;;;2.18;100.00;98414.08;1714049;83;20970;-79
2022/11/10 05:24:29;;;;;;;38.80;19.25;;;;;;;2.18;100.00;98422.92;1713934;83;20970;-82
2022/11/10 05:26:56;;;;;;;37.08;20.30;;;;;;;2.15;100.00;98427.38;1714186;83;21429;-82
2022/11/10 05:29:22;;;;;;;41.00;20.65;;;;;;;2.19;100.00;98428.56;1713870;83;20996;-79
2022/11/10 05:31:49;;;;;;;38.17;21.52;;;;;;;2.24;100.00;98439.97;1705495;83;21061;-82
2022/11/10 05:34:16;;;;;;;36.75;20.43;;;;;;;2.25;100.00;98437.08;1698596;83;21048;-78
2022/11/10 05:36:43;;;;;;;38.48;20.95;;;;;;;2.29;100.00;98437.45;1698986;83;21644;-78
2022/11/10 05:39:10;;;;;;;41.30;22.20;;;;;;;2.35;100.00;98433.92;1698755;83;21478;-78
2022/11/10 05:41:37;;;;;;;39.48;21.20;;;;;;;2.39;100.00;98439.64;1698983;84;21033;-79
2022/11/10 05:44:04;;;;;;;42.53;22.73;;;;;;;2.40;100.00;98435.95;1699222;83;20978;-82
2022/11/10 05:46:31;;;;;;;33.20;20.08;;;;;;;2.41;100.00;98445.09;1699176;84;21006;-78
2022/11/10 05:48:57;;;;;;;37.23;21.00;;;;;;;2.44;100.00;98443.31;1699246;83;21024;-79
2022/11/10 05:51:24;;;;;;;37.53;20.85;;;;;;;2.48;100.00;98450.41;1699181;83;20990;-79
2022/11/10 05:53:51;;;;;;;44.75;24.07;;;;;;;2.49;100.00;98451.52;1699164;83;21018;-82
2022/11/10 05:56:18;;;;;;;41.75;22.85;;;;;;;2.53;100.00;98457.23;1699250;83;21514;-79
2022/11/10 05:58:45;;;;;;;49.98;24.98;;;;;;;2.53;100.00;98472.77;1709085;82;20973;-82
2022/11/10 06:01:12;;;;;;;49.33;22.50;;;;;;;2.51;100.00;98470.84;1713585;83;21001;-82
2022/11/10 06:03:39;;;;;;;43.70;24.02;;;;;;;2.53;100.00;98476.78;1693185;83;20994;-78
2022/11/10 06:06:06;;;;;;;40.43;22.45;;;;;;;2.55;100.00;98485.41;1708957;83;20990;-79
2022/11/10 06:08:33;;;;;;;48.38;26.95;;;;;;;2.62;100.00;98490.72;1713966;82;21009;-82
2022/11/10 06:11:00;;;;;;;52.08;27.67;;;;;;;2.66;100.00;98498.63;1714195;83;21010;-78
2022/11/10 06:13:28;;;;;;;48.02;28.07;;;;;;;2.69;100.00;98502.20;1714081;83;21160;-79
2022/11/10 06:15:55;;;;;;;49.88;28.10;;;;;;;2.72;100.00;98503.61;1713638;82;21014;-82
2022/11/10 06:18:22;;;;;;;48.48;27.82;;;;;;;2.74;100.00;98509.59;1718817;81;21053;-82
2022/11/10 06:20:48;;;;;;;43.15;26.20;;;;;;;2.80;100.00;98512.72;1712629;82;21663;-82
2022/11/10 06:23:15;;;;;;;50.12;27.45;;;;;;;2.86;100.00;98520.41;1704375;82;20963;-79
2022/11/10 06:25:43;;;;;;;52.50;27.20;;;;;;;2.87;100.00;98520.18;1714265;83;21041;-78
2022/11/10 06:28:10;;;;;;;47.13;27.87;;;;;;;2.94;100.00;98527.64;1684020;83;20955;-78
2022/11/10 06:30:37;;;;;;;46.63;26.10;;;;;;;3.05;100.00;98530.13;1692218;82;21002;-82
2022/11/10 06:33:04;;;;;;;53.38;28.98;;;;;;;3.13;100.00;98535.20;1738525;81;21063;-82
2022/11/10 06:35:31;;;;;;;49.98;27.67;;;;;;;3.22;100.00;98534.41;1734464;82;20978;-82
2022/11/10 06:38:09;;;;;;;47.35;26.00;;;;;;;3.28;100.00;98541.58;1714069;82;21887;-82
2022/11/10 06:40:36;;;;;;;49.50;27.20;;;;;;;3.33;100.00;98540.38;1693012;83;21005;-78
2022/11/10 06:43:03;;;;;;;50.17;28.07;;;;;;;3.43;100.00;98546.60;1705819;82;21041;-82
2022/11/10 06:45:30;;;;;;;54.42;28.83;;;;;;;3.51;100.00;98547.13;1694392;83;21013;-79
2022/11/10 06:48:05;;;;;;;51.70;28.00;;;;;;;3.59;100.00;98548.67;1714027;83;20966;-79
2022/11/10 06:50:32;;;;;;;63.45;31.57;;;;;;;3.67;100.00;98556.43;1712422;83;21017;-82
2022/11/10 06:52:59;;;;;;;58.48;30.65;;;;;;;3.76;100.00;98559.64;1712476;82;21017;-82
2022/11/10 06:55:26;;;;;;;49.95;26.00;;;;;;;3.85;100.00;98556.98;1713259;83;21029;-79
2022/11/10 06:57:53;;;;;;;62.98;34.63;;;;;;;3.91;100.00;98563.59;1708930;83;20994;-82
2022/11/10 07:00:20;;;;;;;83.50;40.92;;;;;;;4.00;100.00;98565.45;1701083;82;20978;-79
2022/11/10 07:02:47;;;;;;;70.30;35.98;;;;;;;4.05;100.00;98572.32;1713771;82;21866;-82
2022/11/10 07:05:14;;;;;;;58.92;31.85;;;;;;;4.12;100.00;98569.05;1712749;83;21001;-82
2022/11/10 07:07:41;;;;;;;73.62;36.50;;;;;;;4.22;100.00;98574.69;1679498;84;21347;-82
2022/11/10 07:10:08;;;;;;;98.22;48.30;;;;;;;4.30;100.00;98577.59;1682361;83;20992;-82
2022/11/10 07:12:35;;;;;;;95.50;47.03;;;;;;;4.36;100.00;98587.44;1704527;83;21394;-82
2022/11/10 07:15:03;;;;;;;100.72;49.77;;;;;;;4.41;100.00;98588.90;1691451;83;21032;-79
2022/11/10 07:17:30;;;;;;;93.35;46.18;;;;;;;4.47;100.00;98592.03;1713827;83;21065;-82
2022/11/10 07:19:57;;;;;;;78.05;40.43;;;;;;;4.52;100.00;98600.73;1710164;82;20955;-79
2022/11/10 07:22:24;;;;;;;64.30;37.08;;;;;;;4.55;100.00;98603.50;1711472;83;21717;-82
2022/11/10 07:24:51;;;;;;;63.10;37.53;;;;;;;4.54;100.00;98608.05;1680996;83;21033;-82
2022/11/10 07:27:18;;;;;;;74.65;42.10;;;;;;;4.55;100.00;98607.00;1711376;82;21073;-79
2022/11/10 07:29:44;;;;;;;70.17;42.17;;;;;;;4.60;100.00;98608.47;1708840;82;21063;-82
2022/11/10 07:32:11;;;;;;;69.60;41.02;;;;;;;4.63;100.00;98609.38;1716487;82;21005;-82
2022/11/10 07:34:38;;;;;;;68.62;39.60;;;;;;;4.64;100.00;98613.70;1713867;83;20989;-79
2022/11/10 07:37:05;;;;;;;78.72;44.35;;;;;;;4.66;100.00;98613.47;1714018;83;21030;-79
2022/11/10 07:39:32;;;;;;;111.77;60.43;;;;;;;4.68;100.00;98616.20;1713621;83;21742;-78
2022/11/10 07:41:59;;;;;;;108.00;63.00;;;;;;;4.68;100.00;98620.23;1692823;83;21021;-79
2022/11/10 07:44:26;;;;;;;96.45;57.13;;;;;;;4.72;100.00;98625.46;1702159;82;20982;-79
2022/11/10 07:46:53;;;;;;;70.83;39.10;;;;;;;4.73;100.00;98621.73;1676953;84;21024;-82
2022/11/10 07:49:20;;;;;;;71.60;43.23;;;;;;;4.79;100.00;98622.70;1689477;83;20984;-78
2022/11/10 07:51:47;;;;;;;74.62;45.30;;;;;;;4.85;100.00;98635.72;1693578;83;21029;-78
2022/11/10 07:54:14;;;;;;;63.73;36.40;;;;;;;4.91;100.00;98635.63;1710684;83;20992;-82
2022/11/10 07:56:41;;;;;;;68.33;37.65;;;;;;;4.93;100.00;98637.55;1703010;83;20989;-79
2022/11/10 07:59:08;;;;;;;62.30;39.45;;;;;;;4.97;100.00;98635.25;1701749;83;20974;-79
2022/11/10 08:01:34;;;;;;;68.05;42.48;;;;;;;5.01;100.00;98645.30;1698099;83;21447;-82
2022/11/10 08:04:02;;;;;;;68.83;45.20;;;;;;;5.06;100.00;98646.78;1697554;83;21015;-83
2022/11/10 08:06:30;;;;;;;80.57;48.15;;;;;;;5.10;100.00;98649.30;1693306;83;21304;-79
2022/11/10 08:08:57;;;;;;;68.50;41.80;;;;;;;5.13;100.00;98645.84;1706905;82;21002;-82
2022/11/10 08:11:24;;;;;;;55.80;33.95;;;;;;;5.13;100.00;98657.44;1710912;83;21505;-79
2022/11/10 08:13:51;;;;;;;72.70;44.67;;;;;;;5.19;100.00;98656.50;1712430;82;21018;-79
2022/11/10 08:16:18;;;;;;;61.00;36.10;;;;;;;5.26;100.00;98651.03;1702289;82;21080;-82
2022/11/10 08:18:45;;;;;;;66.53;40.00;;;;;;;5.33;100.00;98655.27;1703895;82;21012;-82
2022/11/10 08:21:11;;;;;;;76.53;47.30;;;;;;;5.41;100.00;98649.27;1701243;82;21045;-79
2022/11/10 08:23:38;;;;;;;67.27;36.80;;;;;;;5.48;100.00;98652.15;1681551;83;21008;-82
2022/11/10 08:26:05;;;;;;;63.25;40.95;;;;;;;5.60;100.00;98657.53;1705205;83;20984;-79
2022/11/10 08:28:32;;;;;;;62.88;37.83;;;;;;;5.71;100.00;98655.89;1705405;83;21581;-79
2022/11/10 08:31:02;;;;;;;67.87;43.75;;;;;;;5.81;100.00;98660.16;1702391;82;21963;-79
2022/11/10 08:33:28;;;;;;;57.90;35.55;;;;;;;5.91;100.00;98655.08;1705944;82;21150;-79
2022/11/10 08:35:55;;;;;;;54.98;34.15;;;;;;;6.03;100.00;98655.06;1704444;82;20975;-82
2022/11/10 08:38:23;;;;;;;62.85;36.63;;;;;;;6.14;100.00;98660.43;1706935;82;21009;-82
2022/11/10 08:40:50;;;;;;;51.55;29.20;;;;;;;6.26;100.00;98666.34;1709746;82;21221;-79
2022/11/10 08:43:17;;;;;;;45.60;24.27;;;;;;;6.39;100.00;98676.31;1717456;82;20974;-79
2022/11/10 08:45:44;;;;;;;44.83;24.45;;;;;;;6.58;100.00;98678.35;1707555;82;21465;-79
2022/11/10 08:48:17;;;;;;;38.05;23.57;;;;;;;6.72;100.00;98687.78;1711614;82;21077;-79
2022/11/10 08:50:44;;;;;;;43.58;24.55;;;;;;;6.84;100.00;98690.99;1709121;82;21036;-79
2022/11/10 08:53:13;;;;;;;54.35;30.37;;;;;;;6.93;100.00;98695.77;1689470;83;21744;-79
2022/11/10 08:55:40;;;;;;;47.00;26.90;;;;;;;6.99;100.00;98702.05;1707194;82;21087;-82
2022/11/10 08:58:13;;;;;;;39.75;25.85;;;;;;;7.04;100.00;98702.97;1653857;84;21046;-82
2022/11/10 09:00:40;;;;;;;44.93;25.32;;;;;;;7.10;100.00;98703.91;1652102;84;21041;-82
2022/11/10 09:03:17;;;;;;;50.40;29.07;;;;;;;7.16;100.00;98716.92;1707047;82;21488;-83
2022/11/10 09:05:46;;;;;;;54.73;32.65;;;;;;;7.24;100.00;98720.05;1708466;82;21042;-82
2022/11/10 09:08:13;;;;;;;;;;;;;;;7.34;100.00;98721.59;1708060;82;21005;-79
2022/11/10 09:10:46;;;;;;;49.80;29.60;;;;;;;7.45;100.00;98722.61;1702487;82;20151;-82
2022/11/10 09:13:14;;;;;;;48.58;29.50;;;;;;;7.57;100.00;98721.19;1691064;83;21015;-83
2022/11/10 09:15:41;;;;;;;56.15;31.20;;;;;;;7.69;100.00;98715.22;1702783;82;21084;-79
2022/11/10 09:18:09;;;;;;;53.35;33.42;;;;;;;7.81;100.00;98721.34;1708107;82;21678;-79
2022/11/10 09:20:36;;;;;;;57.80;34.33;;;;;;;7.91;100.00;98729.59;1704292;82;21032;-79
2022/11/10 09:23:12;;;;;;;52.00;33.00;;;;;;;7.98;100.00;98729.45;1697886;82;21094;-80
2022/11/10 09:25:39;;;;;;;58.00;35.05;;;;;;;8.02;100.00;98732.45;1697562;82;21910;-83
2022/11/10 09:28:12;;;;;;;53.92;35.85;;;;;;;8.06;100.00;98733.09;1706199;82;21419;-79
2022/11/10 09:30:40;;;;;;;101.10;68.75;;;;;;;8.06;100.00;98737.13;1714151;82;21250;-80
2022/11/10 09:33:07;;;;;;;76.92;54.05;;;;;;;8.06;100.00;98745.77;1701265;82;21012;-83
2022/11/10 09:35:33;;;;;;;51.65;32.58;;;;;;;8.10;100.00;98749.06;1706732;82;21037;-82
2022/11/10 09:38:00;;;;;;;56.33;37.10;;;;;;;8.00;100.00;98735.41;1702557;82;22121;-79
2022/11/10 09:40:42;;;;;;;61.10;37.55;;;;;;;8.00;100.00;98735.41;1709085;82;21487;-82
2022/11/10 09:43:22;;;;;;;64.40;43.92;;;;;;;8.12;100.00;98749.66;1704735;82;21160;-82
2022/11/10 09:45:50;;;;;;;68.50;46.48;;;;;;;8.27;100.00;98757.16;1705428;82;21051;-79
2022/11/10 09:48:32;;;;;;;78.55;48.30;;;;;;;8.32;100.00;98761.30;1698648;83;21009;-82
2022/11/10 09:51:03;;;;;;;58.25;37.35;;;;;;;8.36;100.00;98762.98;1712555;82;21030;-83
2022/11/10 09:53:40;;;;;;;93.30;60.43;;;;;;;8.36;100.00;98763.80;1717923;82;21097;-79
2022/11/10 09:56:15;;;;;;;137.45;82.25;;;;;;;8.34;100.00;98765.91;1717091;82;21217;-82
2022/11/10 09:58:44;;;;;;;164.30;98.42;;;;;;;8.36;100.00;98769.20;1704243;82;21024;-82
2022/11/10 10:01:37;;;;;;;135.05;84.50;;;;;;;8.38;100.00;98776.55;1704874;82;21045;-83
2022/11/10 10:04:52;;;;;;;104.05;63.23;;;;;;;8.41;100.00;98772.53;1708041;82;21462;-83
2022/11/10 10:07:53;;;;;;;109.55;61.80;;;;;;;8.46;100.00;98780.19;1698700;83;21082;-79
2022/11/10 10:10:48;;;;;;;99.00;60.58;;;;;;;8.48;100.00;98783.98;1697301;82;21824;-82
2022/11/10 10:13:49;;;;;;;55.58;38.25;;;;;;;8.51;100.00;98787.53;1705281;82;20977;-83
2022/11/10 10:16:56;;;;;;;65.62;35.43;;;;;;;8.55;100.00;98777.88;1701246;82;21048;-82
2022/11/10 10:19:50;;;;;;;55.90;31.50;;;;;;;8.55;100.00;98777.06;1704513;82;21049;-80
2022/11/10 10:22:40;;;;;;;60.08;34.30;;;;;;;8.63;100.00;98788.27;1707943;83;21006;-81
2022/11/10 10:25:18;;;;;;;50.55;28.83;;;;;;;8.60;100.00;98782.52;1682344;83;21235;-80
2022/11/10 10:27:47;;;;;;;50.73;29.95;;;;;;;8.67;100.00;98786.69;1696968;82;21477;-81
2022/11/10 10:30:17;;;;;;;51.92;33.75;;;;;;;8.67;100.00;98786.69;1710862;82;21073;-85
2022/11/10 10:32:44;;;;;;;46.28;28.87;;;;;;;8.77;100.00;98798.17;1704518;82;20993;-83
2022/11/10 10:35:15;;;;;;;53.92;34.00;;;;;;;8.82;100.00;98791.50;1711995;82;21009;-83
2022/11/10 10:37:47;;;;;;;71.67;40.12;;;;;;;8.86;100.00;98803.97;1703619;82;21217;-83
2022/11/10 10:40:17;;;;;;;67.45;39.75;;;;;;;8.87;100.00;98795.60;1706354;82;21017;-80
2022/11/10 10:42:44;;;;;;;69.12;42.48;;;;;;;8.90;100.00;98784.84;1698437;82;21502;-80
2022/11/10 10:45:27;;;;;;;77.90;48.95;;;;;;;8.94;100.00;98796.25;1706371;82;21107;-83
2022/11/10 10:47:55;;;;;;;72.05;45.58;;;;;;;8.98;100.00;98797.93;1697029;82;21079;-83
2022/11/10 10:50:32;;;;;;;61.33;39.70;;;;;;;9.02;100.00;98799.86;1695527;82;21033;-83
2022/11/10 10:53:09;;;;;;;63.45;39.80;;;;;;;9.04;100.00;98800.42;1704543;82;21072;-80
2022/11/10 10:55:36;;;;;;;57.73;36.53;;;;;;;9.03;100.00;98796.09;1702645;82;20998;-79
2022/11/10 10:58:07;;;;;;;103.75;54.23;;;;;;;9.03;100.00;98796.09;1710571;82;21466;-83
2022/11/10 11:00:48;;;;;;;100.60;51.42;;;;;;;9.09;100.00;98805.63;1705582;82;21022;-80
2022/11/10 11:03:29;;;;;;;117.22;54.98;;;;;;;9.09;100.00;98797.52;1698955;83;21528;-80
2022/11/10 11:06:08;;;;;;;105.75;52.95;;;;;;;9.07;100.00;98796.42;1704489;82;21001;-80
2022/11/10 11:08:35;;;;;;;119.00;54.08;;;;;;;9.07;100.00;98805.89;1706950;82;21021;-83
2022/11/10 11:11:09;;;;;;;168.15;68.20;;;;;;;9.05;100.00;98804.77;1701589;82;21043;-80
2022/11/10 11:13:36;;;;;;;217.65;88.07;;;;;;;9.05;100.00;98805.30;1682749;82;21266;-83
2022/11/10 11:16:06;;;;;;;253.10;105.83;;;;;;;9.03;100.00;98806.09;1703679;82;21967;-83
2022/11/10 11:18:35;;;;;;;115.62;53.40;;;;;;;9.02;100.00;98807.16;1705330;82;21019;-83
2022/11/10 11:21:20;;;;;;;86.85;40.63;;;;;;;9.05;100.00;98815.58;1711383;82;21040;-80
2022/11/10 11:24:19;;;;;;;81.30;42.40;;;;;;;9.07;100.00;98815.35;1643910;85;21021;-80
2022/11/10 11:27:04;;;;;;;73.60;36.15;;;;;;;9.11;100.00;98823.77;1710092;82;21470;-80
2022/11/10 11:30:03;;;;;;;70.47;36.42;;;;;;;9.13;100.00;98820.27;1701175;82;21069;-83
2022/11/10 11:32:41;;;;;;;66.57;36.60;;;;;;;9.18;100.00;98825.75;1715583;82;21071;-83
2022/11/10 11:35:37;;;;;;;75.17;43.73;;;;;;;9.22;100.00;98826.87;1711344;82;20996;-83
2022/11/10 11:38:14;;;;;;;60.25;34.85;;;;;;;9.25;100.00;98824.50;1705902;82;21048;-83
2022/11/10 11:41:08;;;;;;;66.60;42.33;;;;;;;9.28;100.00;98836.16;1703966;82;21051;-83
2022/11/10 11:43:55;;;;;;;59.67;37.28;;;;;;;9.29;100.00;98846.44;1700173;82;21766;-83